Main page
METAR-TAF:

METAR-TAF

Airports :

Victoria Falls Airport

Victoria Falls, Zimbabwe

latitude: 18-06S, longitude: 025-51E, elevation: 1061 m

Current weather observation

The report was made 7 hours and 46 minutes ago, at 16:00 UTC
Wind 7 kt from the East/Northeast
Temperature 21°C
Humidity 38%
Pressure 1025 hPa
Visibility 10 km or more
no clouds below 1500 m and no cumulonimbus

METAR: FVFA 231600Z 07007KT CAVOK 21/06 Q1025 NOSIG

Time: 01:46 (23:46 UTC)


TAF: missing

Weather observations and forecasts of more than 4000 airports (METAR and TAF reports).

The available stations are represented by yellow and red dots on the map.

Hover mouse over dot to see the name of the station.

Then click to see weather observations and forecasts.

To change the map : click on the green buttons with a black cross to zoom in, on the green button with a dash to zoom out, or on the green arrows for adjacent maps.


METAR-TAF: